Time;durP1;ratioP1;P1;durP2;ratioP2;P2;SDS_P1;SDS_P2;PMS_P1;PMS_P2;Temp;Humidity;BMP_temperature;BMP_pressure;BME280_temperature;BME280_humidity;BME280_pressure;Samples;Min_cycle;Max_cycle;Signal;HPM_P1;HPM_P2
2021/08/12 00:01:10;;;;;;;6.37;5.87;;;;;;;14.46;100.00;98482.63;5050474;28;20203;-70
2021/08/12 00:03:38;;;;;;;6.67;6.17;;;;;;;14.40;100.00;98492.16;5054451;28;20678;-69
2021/08/12 00:06:08;;;;;;;6.70;6.00;;;;;;;14.44;100.00;98479.31;5053299;28;20754;-70
2021/08/12 00:08:35;;;;;;;6.73;6.13;;;;;;;14.40;100.00;98481.50;5052120;28;20235;-68
2021/08/12 00:11:04;;;;;;;6.50;5.90;;;;;;;14.32;100.00;98474.38;5057628;28;20265;-70
2021/08/12 00:13:32;;;;;;;6.10;5.50;;;;;;;14.42;100.00;98479.47;5053391;28;20191;-69
2021/08/12 00:16:00;;;;;;;5.67;5.23;;;;;;;14.45;100.00;98478.31;5051403;28;20203;-69
2021/08/12 00:18:28;;;;;;;5.93;5.43;;;;;;;14.33;100.00;98472.56;5054937;28;20223;-68
2021/08/12 00:20:56;;;;;;;6.57;5.93;;;;;;;14.27;100.00;98479.41;5052481;28;20877;-70
2021/08/12 00:23:26;;;;;;;7.20;6.03;;;;;;;14.18;100.00;98481.28;5052036;28;20207;-69
2021/08/12 00:25:56;;;;;;;6.87;6.23;;;;;;;14.18;100.00;98475.94;5059516;28;20584;-69
2021/08/12 00:28:24;;;;;;;6.20;5.70;;;;;;;14.10;100.00;98476.00;5050231;28;20223;-69
2021/08/12 00:30:52;;;;;;;8.60;6.13;;;;;;;14.01;100.00;98474.41;5055968;28;20242;-70
2021/08/12 00:33:20;;;;;;;6.33;5.83;;;;;;;13.99;100.00;98481.72;5061603;28;20748;-68
2021/08/12 00:35:49;;;;;;;8.00;7.20;;;;;;;13.95;100.00;98491.09;5057437;28;20613;-70
2021/08/12 00:38:16;;;;;;;7.10;6.60;;;;;;;13.98;100.00;98488.06;5055059;28;20226;-70
2021/08/12 00:40:46;;;;;;;6.83;6.20;;;;;;;13.89;100.00;98488.09;5058875;28;20202;-70
2021/08/12 00:43:14;;;;;;;7.63;6.53;;;;;;;14.01;100.00;98491.19;5055072;28;20210;-69
2021/08/12 00:45:42;;;;;;;6.60;6.10;;;;;;;13.95;100.00;98486.56;5066143;28;20207;-70
2021/08/12 00:48:10;;;;;;;7.67;6.57;;;;;;;13.85;100.00;98485.94;5053479;28;20203;-69
2021/08/12 00:50:41;;;;;;;6.80;6.20;;;;;;;13.91;100.00;98485.25;5056258;28;20223;-69
2021/08/12 00:53:09;;;;;;;6.50;5.90;;;;;;;13.93;100.00;98485.09;5057061;28;20347;-70
2021/08/12 00:55:42;;;;;;;6.73;6.13;;;;;;;13.82;100.00;98480.97;5054071;28;20225;-70
2021/08/12 00:58:12;;;;;;;6.90;6.20;;;;;;;13.81;100.00;98485.47;5054079;28;20210;-69
2021/08/12 01:00:40;;;;;;;6.80;6.13;;;;;;;13.84;100.00;98486.97;5053243;28;20630;-69
2021/08/12 01:03:10;;;;;;;7.43;6.47;;;;;;;13.74;100.00;98484.50;5049419;28;20199;-70
2021/08/12 01:05:43;;;;;;;7.30;6.60;;;;;;;13.68;100.00;98491.34;5055672;28;20214;-70
2021/08/12 01:08:13;;;;;;;6.73;6.13;;;;;;;13.71;100.00;98488.34;5050311;28;20604;-69
2021/08/12 01:10:46;;;;;;;6.67;6.17;;;;;;;13.71;100.00;98482.19;5055717;28;20227;-69
2021/08/12 01:13:22;;;;;;;6.17;5.73;;;;;;;13.75;100.00;98495.00;5052972;28;20203;-69
2021/08/12 01:15:53;;;;;;;9.23;6.80;;;;;;;13.88;100.00;98494.44;5047595;28;20196;-69
2021/08/12 01:18:27;;;;;;;6.53;5.93;;;;;;;13.74;100.00;98493.31;5053686;28;20293;-69
2021/08/12 01:21:20;;;;;;;7.27;6.57;;;;;;;13.61;100.00;98493.03;5056041;28;20601;-69
2021/08/12 01:23:48;;;;;;;6.60;6.10;;;;;;;13.56;100.00;98490.03;5022016;28;20734;-69
2021/08/12 01:26:19;;;;;;;7.53;6.83;;;;;;;13.56;100.00;98492.72;5054054;28;20214;-70
2021/08/12 01:28:50;;;;;;;7.17;6.47;;;;;;;13.55;100.00;98502.53;5055504;28;20230;-69
2021/08/12 01:31:28;;;;;;;7.70;7.00;;;;;;;13.51;100.00;98489.72;5053030;28;20223;-69
2021/08/12 01:34:04;;;;;;;6.53;6.13;;;;;;;13.56;100.00;98490.88;5055572;28;20679;-70
2021/08/12 01:36:34;;;;;;;8.97;7.10;;;;;;;13.55;100.00;98485.72;5050891;28;20580;-70
2021/08/12 01:39:06;;;;;;;6.37;5.87;;;;;;;13.50;100.00;98478.25;5055890;28;20522;-69
2021/08/12 01:41:34;;;;;;;8.10;6.53;;;;;;;13.54;100.00;98489.38;5058379;28;20276;-70
2021/08/12 01:44:02;;;;;;;6.27;5.77;;;;;;;13.63;100.00;98487.53;5053385;28;20234;-69
2021/08/12 01:46:31;;;;;;;6.10;5.67;;;;;;;13.57;100.00;98492.56;5054704;28;20208;-69
2021/08/12 01:49:02;;;;;;;6.77;5.97;;;;;;;13.46;100.00;98490.25;5050323;28;20227;-70
2021/08/12 01:51:31;;;;;;;7.33;6.80;;;;;;;13.40;100.00;98491.72;5060196;28;20277;-70
2021/08/12 01:54:01;;;;;;;8.17;6.60;;;;;;;13.40;100.00;98491.72;5054222;28;20206;-70
2021/08/12 01:56:30;;;;;;;7.00;6.23;;;;;;;13.35;100.00;98494.06;5051388;28;20216;-70
2021/08/12 01:58:59;;;;;;;7.70;6.53;;;;;;;13.28;100.00;98487.78;5047970;28;20237;-70
2021/08/12 02:01:28;;;;;;;8.47;7.40;;;;;;;13.26;100.00;98497.75;5054720;28;20204;-69
2021/08/12 02:03:57;;;;;;;6.33;5.83;;;;;;;13.18;100.00;98493.28;5051090;28;20285;-69
2021/08/12 02:06:26;;;;;;;7.00;6.47;;;;;;;13.17;100.00;98486.28;5047133;28;20959;-69
2021/08/12 02:08:54;;;;;;;6.60;6.00;;;;;;;13.14;100.00;98491.94;5053794;28;20229;-70
2021/08/12 02:11:24;;;;;;;7.73;6.00;;;;;;;13.12;100.00;98491.28;5048387;28;20230;-69
2021/08/12 02:13:52;;;;;;;7.03;6.53;;;;;;;13.09;100.00;98480.97;5054897;28;20203;-70
2021/08/12 02:16:19;;;;;;;6.73;6.23;;;;;;;13.11;100.00;98481.66;5047812;28;20226;-69
2021/08/12 02:18:47;;;;;;;6.70;6.23;;;;;;;13.09;100.00;98481.78;5047635;28;20303;-68
2021/08/12 02:21:18;;;;;;;6.50;6.00;;;;;;;13.11;100.00;98477.13;5056505;28;20200;-70
2021/08/12 02:23:55;;;;;;;6.43;6.00;;;;;;;13.12;100.00;98477.97;5047394;28;20242;-70
2021/08/12 02:26:28;;;;;;;6.43;5.83;;;;;;;13.05;100.00;98469.84;5054582;28;20217;-69
2021/08/12 02:28:56;;;;;;;8.07;6.80;;;;;;;12.99;100.00;98471.31;5051621;28;20217;-70
2021/08/12 02:31:26;;;;;;;6.83;6.23;;;;;;;12.96;100.00;98474.31;5052436;28;20223;-69
2021/08/12 02:33:54;;;;;;;6.77;6.27;;;;;;;13.02;100.00;98470.16;5052625;28;20214;-69
2021/08/12 02:36:22;;;;;;;6.73;6.13;;;;;;;13.06;100.00;98468.84;5052103;28;20216;-68
2021/08/12 02:38:51;;;;;;;6.40;5.90;;;;;;;13.00;100.00;98477.50;5051973;28;20715;-70
2021/08/12 02:41:20;;;;;;;7.37;6.67;;;;;;;12.95;100.00;98479.81;5047375;28;20203;-70
2021/08/12 02:43:51;;;;;;;7.97;7.30;;;;;;;12.92;100.00;98473.00;5049549;28;20230;-71
2021/08/12 02:46:20;;;;;;;6.90;6.40;;;;;;;12.84;100.00;98481.00;5050781;28;20668;-69
2021/08/12 02:48:49;;;;;;;7.53;5.97;;;;;;;12.77;100.00;98475.50;5040994;28;21076;-68
2021/08/12 02:51:17;;;;;;;6.17;5.67;;;;;;;12.78;100.00;98479.00;5044461;28;20228;-69
2021/08/12 02:53:46;;;;;;;7.03;6.53;;;;;;;12.75;100.00;98474.81;5049382;28;20208;-71
2021/08/12 02:56:15;;;;;;;6.37;5.87;;;;;;;12.72;100.00;98473.34;5060462;28;20203;-70
2021/08/12 02:58:44;;;;;;;7.30;6.70;;;;;;;12.70;100.00;98463.88;5055126;28;20225;-69
2021/08/12 03:01:14;;;;;;;7.27;6.67;;;;;;;12.74;100.00;98470.50;5058003;28;20199;-70
2021/08/12 03:03:44;;;;;;;6.90;6.13;;;;;;;12.69;100.00;98468.38;5060460;28;20259;-70
2021/08/12 03:06:14;;;;;;;7.07;6.50;;;;;;;12.60;100.00;98464.03;5053846;28;20233;-70
2021/08/12 03:08:45;;;;;;;6.90;6.30;;;;;;;12.64;100.00;98465.34;5061523;28;20213;-69
2021/08/12 03:11:15;;;;;;;6.77;6.07;;;;;;;12.58;100.00;98458.03;5051249;28;20318;-69
2021/08/12 03:13:43;;;;;;;6.77;6.13;;;;;;;12.61;100.00;98457.72;5056844;28;20199;-69
2021/08/12 03:16:13;;;;;;;6.87;6.27;;;;;;;12.59;100.00;98459.69;5057819;28;20635;-69
2021/08/12 03:18:41;;;;;;;7.27;6.33;;;;;;;12.54;100.00;98454.06;5061556;28;20763;-70
2021/08/12 03:21:10;;;;;;;7.07;6.47;;;;;;;12.49;100.00;98456.38;5058204;28;20659;-69
2021/08/12 03:23:39;;;;;;;6.80;6.17;;;;;;;12.47;100.00;98459.19;5052842;28;20207;-70
2021/08/12 03:26:07;;;;;;;7.07;6.57;;;;;;;12.44;100.00;98460.38;5057906;28;20552;-69
2021/08/12 03:28:35;;;;;;;6.30;5.80;;;;;;;12.49;100.00;98461.69;5055739;28;20227;-70
2021/08/12 03:31:03;;;;;;;6.57;6.00;;;;;;;12.51;100.00;98465.03;5051960;28;20560;-68
2021/08/12 03:33:33;;;;;;;7.33;6.73;;;;;;;12.46;100.00;98470.81;5057349;28;20199;-69
2021/08/12 03:36:01;;;;;;;6.13;5.63;;;;;;;12.47;100.00;98467.16;5053798;28;20860;-70
2021/08/12 03:38:29;;;;;;;10.37;5.80;;;;;;;12.41;100.00;98467.81;5059003;28;20234;-70
2021/08/12 03:40:57;;;;;;;7.07;6.10;;;;;;;12.40;100.00;98469.66;5053485;28;20211;-69
2021/08/12 03:43:24;;;;;;;8.67;6.07;;;;;;;12.38;100.00;98461.03;5061618;28;20667;-69
2021/08/12 03:45:53;;;;;;;6.43;5.83;;;;;;;12.37;100.00;98461.19;5060013;28;20221;-70
2021/08/12 03:48:21;;;;;;;6.67;6.17;;;;;;;12.38;100.00;98461.03;5059375;28;20284;-69
2021/08/12 03:50:50;;;;;;;7.43;6.83;;;;;;;12.38;100.00;98471.66;5058942;28;20207;-68
2021/08/12 03:53:18;;;;;;;6.63;6.03;;;;;;;12.33;100.00;98470.47;5048313;28;20220;-68
2021/08/12 03:55:46;;;;;;;6.40;5.90;;;;;;;12.33;100.00;98473.13;5050904;28;20659;-68
2021/08/12 03:58:14;;;;;;;6.63;6.07;;;;;;;12.39;100.00;98469.81;5046658;28;20223;-67
2021/08/12 04:00:42;;;;;;;6.93;6.30;;;;;;;12.28;100.00;98462.97;5064826;28;20198;-67
2021/08/12 04:03:10;;;;;;;6.67;6.07;;;;;;;12.28;100.00;98473.63;5051223;28;20534;-68
2021/08/12 04:05:38;;;;;;;6.50;5.87;;;;;;;12.31;100.00;98478.59;5059252;28;20303;-69
2021/08/12 04:08:07;;;;;;;6.87;6.27;;;;;;;12.32;100.00;98474.13;5058776;28;20206;-70
2021/08/12 04:10:35;;;;;;;6.40;5.83;;;;;;;12.28;100.00;98469.16;5064897;28;20219;-69
2021/08/12 04:13:03;;;;;;;7.10;6.50;;;;;;;12.26;100.00;98476.44;5059050;28;20223;-68
2021/08/12 04:15:31;;;;;;;6.83;6.23;;;;;;;12.27;100.00;98466.63;5062123;28;20240;-69
2021/08/12 04:17:59;;;;;;;6.50;6.00;;;;;;;12.28;100.00;98463.81;5061840;28;20844;-70
2021/08/12 04:20:27;;;;;;;7.03;6.47;;;;;;;12.28;100.00;98463.81;5056005;28;20239;-68
2021/08/12 04:22:55;;;;;;;7.13;6.60;;;;;;;12.31;100.00;98465.31;5057096;28;20604;-69
2021/08/12 04:25:24;;;;;;;6.20;5.73;;;;;;;12.36;100.00;98470.16;5064509;28;20215;-69
2021/08/12 04:27:52;;;;;;;6.87;6.20;;;;;;;12.35;100.00;98466.66;5051854;28;20703;-67
2021/08/12 04:30:22;;;;;;;6.73;6.10;;;;;;;12.40;100.00;98460.84;5055992;28;20238;-68
2021/08/12 04:32:50;;;;;;;8.67;7.07;;;;;;;12.36;100.00;98463.03;5053769;28;20226;-69
2021/08/12 04:35:19;;;;;;;6.33;5.90;;;;;;;12.38;100.00;98460.19;5055900;28;20814;-69
2021/08/12 04:37:47;;;;;;;7.30;6.53;;;;;;;12.60;100.00;98458.69;5062235;28;20206;-69
2021/08/12 04:40:17;;;;;;;6.50;5.93;;;;;;;12.64;100.00;98460.03;5056318;28;20226;-69
2021/08/12 04:42:48;;;;;;;6.80;6.30;;;;;;;12.68;100.00;98463.19;5057214;28;20279;-69
2021/08/12 04:45:16;;;;;;;6.57;6.07;;;;;;;12.71;100.00;98471.69;5045936;28;20206;-68
2021/08/12 04:47:44;;;;;;;6.53;5.87;;;;;;;12.69;100.00;98476.34;5061396;28;20852;-69
2021/08/12 04:50:14;;;;;;;8.43;6.43;;;;;;;12.64;100.00;98470.66;5061527;28;20898;-69
2021/08/12 04:52:42;;;;;;;7.37;6.77;;;;;;;12.69;100.00;98472.84;5057939;28;20218;-69
2021/08/12 04:55:12;;;;;;;6.57;6.17;;;;;;;12.74;100.00;98474.00;5056191;28;20634;-69
2021/08/12 04:57:40;;;;;;;5.90;5.43;;;;;;;12.77;100.00;98474.69;5053302;28;20233;-70
2021/08/12 05:00:11;;;;;;;6.57;6.07;;;;;;;12.90;100.00;98474.19;5043444;28;21661;-67
2021/08/12 05:02:39;;;;;;;7.77;7.00;;;;;;;12.83;100.00;98474.00;5049447;28;20211;-69
2021/08/12 05:05:07;;;;;;;7.30;6.67;;;;;;;12.99;100.00;98476.66;5057345;28;20206;-69
2021/08/12 05:07:35;;;;;;;6.57;5.93;;;;;;;13.01;100.00;98481.81;5050166;28;20289;-69
2021/08/12 05:10:04;;;;;;;6.93;6.43;;;;;;;13.14;100.00;98479.47;5047844;28;20383;-70
2021/08/12 05:12:32;;;;;;;6.60;6.00;;;;;;;13.20;100.00;98482.44;5059365;28;20230;-70
2021/08/12 05:15:00;;;;;;;8.20;7.50;;;;;;;13.28;100.00;98480.59;5053183;28;20200;-69
2021/08/12 05:17:29;;;;;;;8.87;6.53;;;;;;;13.30;100.00;98486.59;5059950;28;20204;-69
2021/08/12 05:19:57;;;;;;;6.90;6.30;;;;;;;13.48;100.00;98482.09;5055029;28;20230;-68
2021/08/12 05:22:25;;;;;;;8.63;6.67;;;;;;;13.50;100.00;98488.91;5056185;28;20216;-69
2021/08/12 05:24:54;;;;;;;7.17;6.57;;;;;;;13.51;100.00;98489.72;5059060;28;20286;-68
2021/08/12 05:27:22;;;;;;;6.73;6.13;;;;;;;13.66;100.00;98493.38;5053463;28;20227;-69
2021/08/12 05:29:50;;;;;;;6.70;6.07;;;;;;;13.75;100.00;98500.31;5057491;28;20229;-68
2021/08/12 05:32:17;;;;;;;7.27;6.77;;;;;;;13.92;100.00;98499.41;5047614;28;20211;-70
2021/08/12 05:34:47;;;;;;;6.87;6.30;;;;;;;14.02;100.00;98500.03;5054795;28;20198;-68
2021/08/12 05:37:15;;;;;;;10.17;7.37;;;;;;;14.09;100.00;98503.66;5049212;28;20206;-68
2021/08/12 05:39:43;;;;;;;7.17;6.57;;;;;;;14.32;100.00;98494.88;5056804;28;20732;-70
2021/08/12 05:42:10;;;;;;;8.13;6.60;;;;;;;14.44;100.00;98496.13;5058721;28;20234;-68
2021/08/12 05:44:38;;;;;;;7.33;6.73;;;;;;;14.58;100.00;98493.69;5057179;28;20204;-69
2021/08/12 05:47:06;;;;;;;7.50;6.90;;;;;;;14.69;100.00;98490.63;5056899;28;20841;-70
2021/08/12 05:49:34;;;;;;;7.97;7.17;;;;;;;14.89;100.00;98504.34;5051356;28;20231;-68
2021/08/12 05:52:04;;;;;;;7.30;6.60;;;;;;;14.93;100.00;98502.13;5062191;28;20218;-70
2021/08/12 05:54:32;;;;;;;11.13;8.53;;;;;;;14.95;100.00;98501.97;5049228;28;20231;-69
2021/08/12 05:57:00;;;;;;;7.87;7.17;;;;;;;15.00;100.00;98503.09;5063597;28;20215;-70
2021/08/12 05:59:28;;;;;;;8.40;7.60;;;;;;;15.10;100.00;98494.81;5063958;28;21011;-68
2021/08/12 06:01:56;;;;;;;8.57;7.23;;;;;;;15.23;100.00;98493.38;5051481;28;20219;-69
2021/08/12 06:04:24;;;;;;;6.80;6.20;;;;;;;15.39;100.00;98500.41;5058580;28;20199;-68
2021/08/12 06:06:52;;;;;;;11.73;7.67;;;;;;;15.49;100.00;98487.59;5052805;28;20407;-70
2021/08/12 06:09:21;;;;;;;7.90;7.10;;;;;;;15.54;100.00;98492.41;5054524;28;20342;-68
2021/08/12 06:11:49;;;;;;;8.97;8.07;;;;;;;15.74;100.00;98492.69;5057716;28;20199;-70
2021/08/12 06:14:17;;;;;;;8.10;7.33;;;;;;;15.80;100.00;98491.09;5057656;28;20225;-70
2021/08/12 06:16:45;;;;;;;13.13;8.40;;;;;;;15.89;100.00;98490.84;5062412;28;20580;-70
2021/08/12 06:19:13;;;;;;;9.43;8.10;;;;;;;16.04;100.00;98490.81;5049258;28;20230;-69
2021/08/12 06:21:41;;;;;;;17.47;9.70;;;;;;;16.05;100.00;98495.16;5057963;28;20198;-70
2021/08/12 06:24:13;;;;;;;10.23;8.17;;;;;;;16.17;100.00;98492.84;5053862;28;20197;-69
2021/08/12 06:26:44;;;;;;;14.80;8.97;;;;;;;16.19;100.00;98500.66;5056933;28;20263;-69
2021/08/12 06:29:12;;;;;;;20.87;7.67;;;;;;;16.26;100.00;98506.09;5053958;28;20718;-69
2021/08/12 06:31:40;;;;;;;18.00;8.50;;;;;;;16.52;100.00;98492.16;5053000;28;20210;-70
2021/08/12 06:34:08;;;;;;;20.17;9.00;;;;;;;16.74;100.00;98497.53;5050404;28;20242;-70
2021/08/12 06:36:36;;;;;;;17.90;9.47;;;;;;;16.84;100.00;98497.19;5060978;28;20568;-70
2021/08/12 06:39:04;;;;;;;18.33;9.63;;;;;;;16.85;100.00;98498.84;5056461;28;20234;-69
2021/08/12 06:41:32;;;;;;;14.97;9.13;;;;;;;17.03;100.00;98493.06;5053474;28;20226;-70
2021/08/12 06:44:01;;;;;;;11.53;9.10;;;;;;;17.21;100.00;98490.75;5061825;28;20208;-69
2021/08/12 06:46:29;;;;;;;16.43;8.80;;;;;;;17.49;100.00;98495.25;5052750;28;20202;-69
2021/08/12 06:48:57;;;;;;;13.87;9.23;;;;;;;17.57;100.00;98501.50;5055505;28;20254;-69
2021/08/12 06:51:30;;;;;;;17.43;8.80;;;;;;;17.72;100.00;98494.13;5057596;28;20701;-69
2021/08/12 06:53:58;;;;;;;12.40;8.97;;;;;;;17.94;100.00;98489.50;5053577;28;20253;-70
2021/08/12 06:56:26;;;;;;;12.97;8.47;;;;;;;18.32;100.00;98479.34;5058334;28;20208;-69
2021/08/12 06:58:54;;;;;;;18.73;8.83;;;;;;;18.32;100.00;98479.34;5054231;28;20322;-69
2021/08/12 07:01:23;;;;;;;14.77;9.23;;;;;;;18.57;100.00;98485.00;5057045;28;20211;-69
2021/08/12 07:03:54;;;;;;;14.57;9.63;;;;;;;18.59;100.00;98487.47;5054109;28;20805;-69
2021/08/12 07:06:22;;;;;;;15.63;8.63;;;;;;;18.79;100.00;98484.81;5046929;28;20671;-69
2021/08/12 07:08:52;;;;;;;18.63;8.73;;;;;;;18.97;100.00;98483.38;5052855;28;20222;-70
2021/08/12 07:11:20;;;;;;;23.67;9.37;;;;;;;19.08;100.00;98477.41;5051662;28;20299;-68
2021/08/12 07:13:49;;;;;;;16.83;9.87;;;;;;;19.50;100.00;98483.34;5057938;28;20235;-69
2021/08/12 07:16:17;;;;;;;23.13;8.63;;;;;;;19.41;100.00;98492.66;5045563;28;20234;-70
2021/08/12 07:18:47;;;;;;;17.80;9.03;;;;;;;19.54;100.00;98499.88;5053173;28;20229;-70
2021/08/12 07:21:15;;;;;;;17.37;8.40;;;;;;;19.70;100.00;98492.41;5049486;28;20367;-70
2021/08/12 07:23:45;;;;;;;20.60;9.40;;;;;;;19.67;100.00;98504.38;5055289;28;20815;-70
2021/08/12 07:26:13;;;;;;;14.13;8.77;;;;;;;19.79;100.00;98504.56;5052938;28;20517;-69
2021/08/12 07:28:41;;;;;;;24.37;8.87;;;;;;;20.11;100.00;98499.31;5055899;28;20233;-70
2021/08/12 07:31:09;;;;;;;12.27;8.73;;;;;;;20.34;99.15;98492.59;5051503;28;20216;-68
2021/08/12 07:33:38;;;;;;;19.70;8.47;;;;;;;20.47;97.55;98495.19;5052713;28;20698;-70
2021/08/12 07:36:08;;;;;;;16.47;8.73;;;;;;;20.95;92.99;98499.25;5056829;28;20211;-70
2021/08/12 07:38:37;;;;;;;13.93;8.07;;;;;;;20.79;91.30;98500.63;5052084;28;20235;-70
2021/08/12 07:41:05;;;;;;;20.63;8.97;;;;;;;20.79;91.94;98508.69;5053755;28;20598;-70
2021/08/12 07:43:33;;;;;;;16.60;8.47;;;;;;;20.72;90.95;98507.06;5061157;28;20444;-70
2021/08/12 07:46:01;;;;;;;16.83;7.83;;;;;;;20.77;93.09;98499.16;5055509;28;20353;-69
2021/08/12 07:48:29;;;;;;;14.37;7.70;;;;;;;20.80;91.15;98499.56;5063867;28;20222;-69
2021/08/12 07:50:57;;;;;;;17.83;8.43;;;;;;;;;;5063460;28;20206;-69
2021/08/12 07:53:26;;;;;;;12.80;8.90;;;;;;;20.80;91.46;98494.19;5061233;28;20211;-70
2021/08/12 07:55:56;;;;;;;19.23;8.60;;;;;;;20.80;89.47;98502.28;5057915;28;20714;-69
2021/08/12 07:58:24;;;;;;;19.27;8.43;;;;;;;20.77;91.11;98493.75;5055388;28;20235;-70
2021/08/12 08:00:53;;;;;;;16.10;7.77;;;;;;;21.05;85.62;98496.09;5058056;28;20211;-69
2021/08/12 08:03:22;;;;;;;16.03;7.53;;;;;;;21.26;84.98;98491.31;5058949;28;20210;-68
2021/08/12 08:05:50;;;;;;;11.70;7.90;;;;;;;21.25;85.04;98482.44;5052014;28;20198;-70
2021/08/12 08:08:18;;;;;;;12.47;7.47;;;;;;;21.31;86.50;98485.28;5054326;28;20219;-70
2021/08/12 08:10:47;;;;;;;12.17;6.93;;;;;;;21.41;83.41;98485.59;5053185;28;20217;-70
2021/08/12 08:13:16;;;;;;;10.23;6.63;;;;;;;21.47;84.98;98490.09;5055808;28;20285;-71
2021/08/12 08:15:44;;;;;;;13.27;6.63;;;;;;;21.67;84.23;98487.22;5054715;28;20258;-69
2021/08/12 08:18:13;;;;;;;8.67;5.60;;;;;;;22.05;83.24;98484.50;5055306;28;20207;-70
2021/08/12 08:20:41;;;;;;;11.03;6.00;;;;;;;21.97;80.00;98486.47;5055892;28;20213;-70
2021/08/12 08:23:11;;;;;;;7.83;5.30;;;;;;;21.92;83.42;98480.09;5058611;28;20600;-69
2021/08/12 08:25:39;;;;;;;11.13;5.77;;;;;;;22.28;84.33;98472.97;5049657;28;20645;-71
2021/08/12 08:28:09;;;;;;;6.87;5.30;;;;;;;22.37;82.39;98474.31;5054110;28;20218;-69
2021/08/12 08:30:38;;;;;;;10.73;5.97;;;;;;;22.66;81.12;98471.03;5054930;28;20620;-70
2021/08/12 08:33:06;;;;;;;11.17;7.07;;;;;;;22.96;78.99;98470.16;5049942;28;20204;-70
2021/08/12 08:35:35;;;;;;;10.47;6.60;;;;;;;23.01;78.28;98472.97;5056396;28;20232;-70
2021/08/12 08:38:03;;;;;;;7.20;6.10;;;;;;;23.01;77.74;98478.38;5054653;28;20200;-69
2021/08/12 08:40:32;;;;;;;8.07;6.07;;;;;;;22.78;78.17;98474.56;5054299;28;20202;-70
2021/08/12 08:43:00;;;;;;;7.27;6.23;;;;;;;22.93;76.04;98468.72;5061382;28;20206;-70
2021/08/12 08:45:29;;;;;;;8.77;5.20;;;;;;;22.89;78.98;98472.13;5051871;28;20249;-69
2021/08/12 08:48:00;;;;;;;9.80;5.50;;;;;;;23.01;79.13;98481.06;5051844;28;20629;-70
2021/08/12 08:50:31;;;;;;;11.83;5.43;;;;;;;22.97;79.12;98480.72;5048552;28;20200;-70
2021/08/12 08:53:00;;;;;;;7.40;5.50;;;;;;;23.03;78.30;98478.13;5052001;28;20460;-71
2021/08/12 08:55:28;;;;;;;7.23;5.63;;;;;;;23.15;76.75;98483.53;5056653;28;20227;-71
2021/08/12 08:57:58;;;;;;;6.40;5.00;;;;;;;23.18;76.79;98480.38;5050085;28;20207;-70
2021/08/12 09:00:26;;;;;;;6.90;5.20;;;;;;;23.31;76.96;98473.94;5052439;28;20200;-70
2021/08/12 09:02:56;;;;;;;7.47;5.40;;;;;;;23.44;74.58;98478.28;5053503;28;20207;-70
2021/08/12 09:05:24;;;;;;;7.87;4.67;;;;;;;23.45;73.99;98478.03;5054608;28;20738;-70
2021/08/12 09:07:52;;;;;;;6.70;5.33;;;;;;;23.39;73.41;98474.41;5054396;28;20209;-71
2021/08/12 09:10:22;;;;;;;6.70;5.10;;;;;;;23.54;73.21;98468.53;5054044;28;20683;-69
2021/08/12 09:12:50;;;;;;;6.63;4.93;;;;;;;23.59;71.77;98467.78;5051573;28;20217;-70
2021/08/12 09:15:20;;;;;;;10.67;5.03;;;;;;;23.67;69.50;98464.72;5050885;28;20684;-70
2021/08/12 09:17:49;;;;;;;5.77;4.77;;;;;;;23.79;69.25;98463.91;5050386;28;20206;-69
2021/08/12 09:20:21;;;;;;;7.43;5.03;;;;;;;23.85;67.88;98455.63;5049704;28;20226;-71
2021/08/12 09:22:58;;;;;;;5.30;4.73;;;;;;;24.08;69.45;98459.34;5045534;28;20211;-70
2021/08/12 09:25:33;;;;;;;6.90;4.87;;;;;;;24.47;62.80;98461.44;5053831;28;20210;-69
2021/08/12 09:28:12;;;;;;;6.37;5.33;;;;;;;24.52;64.31;98453.41;5056876;28;20199;-69
2021/08/12 09:30:41;;;;;;;6.20;4.87;;;;;;;24.66;64.96;98448.50;5053624;28;20491;-70
2021/08/12 09:33:14;;;;;;;5.77;4.80;;;;;;;24.95;64.97;98450.31;5055641;28;20211;-71
2021/08/12 09:35:44;;;;;;;5.20;4.67;;;;;;;25.10;60.18;98447.03;5054255;28;20223;-71
2021/08/12 09:38:13;;;;;;;5.73;5.20;;;;;;;24.96;62.47;98443.84;5052344;28;20218;-71
2021/08/12 09:40:42;;;;;;;5.70;5.10;;;;;;;25.21;62.19;98446.09;5055823;28;20210;-71
2021/08/12 09:43:11;;;;;;;5.17;4.77;;;;;;;25.18;63.13;98441.19;5059153;28;20211;-70
2021/08/12 09:45:41;;;;;;;5.30;4.77;;;;;;;25.25;62.52;98441.03;5051149;28;20544;-70
2021/08/12 09:48:13;;;;;;;8.43;4.90;;;;;;;25.39;63.00;98439.59;5052504;28;20199;-71
2021/08/12 09:50:42;;;;;;;5.70;5.20;;;;;;;25.36;62.60;98439.25;5054403;28;20468;-70
2021/08/12 09:53:18;;;;;;;6.53;5.23;;;;;;;25.41;61.73;98442.84;5054972;28;20892;-70
2021/08/12 09:55:47;;;;;;;6.50;4.77;;;;;;;25.52;60.98;98443.84;5053069;28;20226;-71
2021/08/12 09:58:16;;;;;;;6.30;4.70;;;;;;;25.48;63.09;98442.72;5054316;28;20708;-70
2021/08/12 10:00:45;;;;;;;7.40;5.50;;;;;;;25.39;61.08;98438.78;5058933;28;20213;-70
2021/08/12 10:03:22;;;;;;;5.27;4.87;;;;;;;25.36;61.41;98440.09;5051070;28;20200;-68
2021/08/12 10:05:51;;;;;;;5.27;4.87;;;;;;;25.47;61.83;98441.09;5052673;28;20201;-70
2021/08/12 10:08:32;;;;;;;5.90;4.43;;;;;;;25.51;60.55;98439.50;5052464;28;20575;-70
2021/08/12 10:11:18;;;;;;;6.07;5.47;;;;;;;25.57;59.91;98434.94;5050625;28;20195;-70
2021/08/12 10:13:47;;;;;;;10.20;5.57;;;;;;;25.76;58.43;98430.06;5048861;28;20207;-68
2021/08/12 10:16:16;;;;;;;6.40;5.23;;;;;;;25.84;58.52;98428.75;5046578;28;20462;-69
2021/08/12 10:18:45;;;;;;;5.73;5.07;;;;;;;25.90;57.88;98435.88;5057697;28;20680;-70
2021/08/12 10:21:15;;;;;;;5.23;4.77;;;;;;;26.09;55.94;98427.41;5051059;28;20211;-70
2021/08/12 10:23:46;;;;;;;5.80;5.40;;;;;;;26.06;55.99;98433.38;5052859;28;20207;-70
2021/08/12 10:26:14;;;;;;;6.13;5.60;;;;;;;26.23;58.83;98431.41;5052492;28;20214;-71
2021/08/12 10:28:44;;;;;;;5.30;4.90;;;;;;;26.25;56.65;98429.25;5050939;28;20760;-69
2021/08/12 10:31:15;;;;;;;5.00;4.67;;;;;;;26.54;53.29;98428.16;5053101;28;20633;-70
2021/08/12 10:33:44;;;;;;;5.40;5.10;;;;;;;26.52;52.13;98428.41;5060260;28;20202;-70
2021/08/12 10:36:12;;;;;;;5.37;4.87;;;;;;;26.68;52.14;98420.38;5050512;28;20234;-71
2021/08/12 10:38:40;;;;;;;5.63;5.07;;;;;;;27.00;51.32;98417.66;5055297;28;20265;-70
2021/08/12 10:41:10;;;;;;;6.37;4.60;;;;;;;26.84;51.17;98415.91;5055041;28;20235;-70
2021/08/12 10:43:38;;;;;;;5.10;4.60;;;;;;;27.00;48.85;98416.84;5056708;28;20203;-71
2021/08/12 10:46:09;;;;;;;4.77;4.43;;;;;;;27.20;50.54;98421.59;5051001;28;20328;-70
2021/08/12 10:48:37;;;;;;;4.63;4.23;;;;;;;27.63;48.05;98420.75;5054562;28;20664;-70
2021/08/12 10:51:12;;;;;;;5.70;4.83;;;;;;;28.03;46.23;98421.97;5052306;28;20217;-71
2021/08/12 10:53:40;;;;;;;4.60;4.30;;;;;;;28.44;44.25;98410.34;5053594;28;20206;-70
2021/08/12 10:56:14;;;;;;;4.97;4.67;;;;;;;28.41;44.29;98410.91;5057004;28;20219;-71
2021/08/12 10:59:05;;;;;;;5.17;4.70;;;;;;;29.15;43.39;98402.41;5054271;28;20223;-70
2021/08/12 11:01:36;;;;;;;4.50;4.30;;;;;;;28.58;42.41;98407.91;5051014;28;20410;-70
2021/08/12 11:04:05;;;;;;;4.80;4.30;;;;;;;28.89;42.80;98405.19;5051552;28;20196;-71
2021/08/12 11:06:41;;;;;;;5.17;4.80;;;;;;;28.79;42.14;98406.03;5053025;28;20258;-69
2021/08/12 11:09:10;;;;;;;4.80;4.43;;;;;;;29.07;42.00;98406.53;5051756;28;20277;-70
2021/08/12 11:12:07;;;;;;;4.70;4.30;;;;;;;29.21;43.92;98395.88;5043413;28;20201;-70
2021/08/12 11:14:56;;;;;;;5.27;4.77;;;;;;;29.38;42.68;98390.09;5045249;28;20213;-70
2021/08/12 11:17:25;;;;;;;4.77;4.47;;;;;;;30.49;38.82;98400.97;5061747;28;20845;-70
2021/08/12 11:19:54;;;;;;;5.17;4.67;;;;;;;30.14;39.20;98402.88;5052963;28;20245;-70
2021/08/12 11:22:33;;;;;;;5.20;4.90;;;;;;;30.23;38.90;98412.09;5062054;28;20717;-69
2021/08/12 11:25:04;;;;;;;4.83;4.53;;;;;;;30.29;39.29;98407.41;5051983;28;20556;-70
2021/08/12 11:27:46;;;;;;;5.77;5.27;;;;;;;29.71;40.00;98412.34;5062493;28;20206;-70
2021/08/12 11:30:50;;;;;;;5.27;4.87;;;;;;;29.41;41.86;98408.66;5054655;28;20312;-70
2021/08/12 11:33:45;;;;;;;4.77;4.47;;;;;;;29.51;41.38;98405.06;5055498;28;20212;-70
2021/08/12 11:36:27;;;;;;;4.97;4.67;;;;;;;29.95;39.66;98399.97;5058432;28;20216;-69
2021/08/12 11:38:58;;;;;;;5.17;4.87;;;;;;;29.78;40.16;98397.59;5054731;28;20227;-70